sensor_id;sensor_type;location;lat;lon;timestamp;temperature;humidity
2957;DHT22;1488;51.548;7.222;2023-09-19T00:00:31;25.00;88.70
2957;DHT22;1488;51.548;7.222;2023-09-19T00:02:59;24.90;88.60
2957;DHT22;1488;51.548;7.222;2023-09-19T00:05:28;24.90;88.50
2957;DHT22;1488;51.548;7.222;2023-09-19T00:07:56;25.00;88.60
2957;DHT22;1488;51.548;7.222;2023-09-19T00:10:24;24.90;88.50
2957;DHT22;1488;51.548;7.222;2023-09-19T00:12:52;24.90;88.40
2957;DHT22;1488;51.548;7.222;2023-09-19T00:15:20;24.90;89.20
2957;DHT22;1488;51.548;7.222;2023-09-19T00:17:47;24.90;88.30
2957;DHT22;1488;51.548;7.222;2023-09-19T00:20:14;24.90;88.30
2957;DHT22;1488;51.548;7.222;2023-09-19T00:22:44;24.90;88.30
2957;DHT22;1488;51.548;7.222;2023-09-19T00:25:11;24.90;88.30
2957;DHT22;1488;51.548;7.222;2023-09-19T00:27:41;24.90;88.20
2957;DHT22;1488;51.548;7.222;2023-09-19T00:30:09;24.90;88.20
2957;DHT22;1488;51.548;7.222;2023-09-19T00:32:40;24.90;88.10
2957;DHT22;1488;51.548;7.222;2023-09-19T00:35:08;24.90;88.10
2957;DHT22;1488;51.548;7.222;2023-09-19T00:37:36;24.90;88.00
2957;DHT22;1488;51.548;7.222;2023-09-19T00:40:05;24.90;88.00
2957;DHT22;1488;51.548;7.222;2023-09-19T00:42:35;24.90;87.90
2957;DHT22;1488;51.548;7.222;2023-09-19T00:45:04;24.90;87.90
2957;DHT22;1488;51.548;7.222;2023-09-19T00:47:31;24.90;87.80
2957;DHT22;1488;51.548;7.222;2023-09-19T00:49:59;24.90;87.80
2957;DHT22;1488;51.548;7.222;2023-09-19T00:52:27;24.90;87.70
2957;DHT22;1488;51.548;7.222;2023-09-19T00:54:54;24.90;87.80
2957;DHT22;1488;51.548;7.222;2023-09-19T00:57:23;24.90;87.70
2957;DHT22;1488;51.548;7.222;2023-09-19T00:59:52;24.90;87.70
2957;DHT22;1488;51.548;7.222;2023-09-19T01:02:20;24.90;87.70
2957;DHT22;1488;51.548;7.222;2023-09-19T01:04:47;24.90;87.70
2957;DHT22;1488;51.548;7.222;2023-09-19T01:07:15;24.90;87.70
2957;DHT22;1488;51.548;7.222;2023-09-19T01:09:42;24.90;87.70
2957;DHT22;1488;51.548;7.222;2023-09-19T01:12:11;24.90;87.70
2957;DHT22;1488;51.548;7.222;2023-09-19T01:14:49;24.90;87.60
2957;DHT22;1488;51.548;7.222;2023-09-19T01:17:27;24.90;87.60
2957;DHT22;1488;51.548;7.222;2023-09-19T01:23:00;24.90;87.50
2957;DHT22;1488;51.548;7.222;2023-09-19T01:25:45;24.80;87.40
2957;DHT22;1488;51.548;7.222;2023-09-19T01:28:32;24.90;88.30
2957;DHT22;1488;51.548;7.222;2023-09-19T01:31:04;24.90;87.50
2957;DHT22;1488;51.548;7.222;2023-09-19T01:33:56;24.80;87.30
2957;DHT22;1488;51.548;7.222;2023-09-19T01:36:25;24.80;87.20
2957;DHT22;1488;51.548;7.222;2023-09-19T01:38:53;24.80;87.30
2957;DHT22;1488;51.548;7.222;2023-09-19T01:41:26;24.80;87.20
2957;DHT22;1488;51.548;7.222;2023-09-19T01:43:56;24.80;87.20
2957;DHT22;1488;51.548;7.222;2023-09-19T01:46:32;24.80;87.20
2957;DHT22;1488;51.548;7.222;2023-09-19T01:49:13;24.80;87.10
2957;DHT22;1488;51.548;7.222;2023-09-19T01:51:45;24.80;87.10
2957;DHT22;1488;51.548;7.222;2023-09-19T01:54:21;24.80;87.10
2957;DHT22;1488;51.548;7.222;2023-09-19T01:57:01;24.80;87.10
2957;DHT22;1488;51.548;7.222;2023-09-19T01:59:35;24.80;87.80
2957;DHT22;1488;51.548;7.222;2023-09-19T02:02:07;24.80;87.10
2957;DHT22;1488;51.548;7.222;2023-09-19T02:04:36;24.80;87.10
2957;DHT22;1488;51.548;7.222;2023-09-19T02:07:03;24.80;87.00
2957;DHT22;1488;51.548;7.222;2023-09-19T02:09:31;24.80;87.00
2957;DHT22;1488;51.548;7.222;2023-09-19T02:11:59;24.80;87.00
2957;DHT22;1488;51.548;7.222;2023-09-19T02:14:26;24.80;86.90
2957;DHT22;1488;51.548;7.222;2023-09-19T02:16:55;24.80;86.90
2957;DHT22;1488;51.548;7.222;2023-09-19T02:19:23;24.80;86.90
2957;DHT22;1488;51.548;7.222;2023-09-19T02:21:50;24.80;86.80
2957;DHT22;1488;51.548;7.222;2023-09-19T02:24:17;24.80;86.80
2957;DHT22;1488;51.548;7.222;2023-09-19T02:26:44;24.80;86.80
2957;DHT22;1488;51.548;7.222;2023-09-19T02:29:11;24.80;86.70
2957;DHT22;1488;51.548;7.222;2023-09-19T02:31:39;24.80;86.70
2957;DHT22;1488;51.548;7.222;2023-09-19T02:34:07;24.80;86.70
2957;DHT22;1488;51.548;7.222;2023-09-19T02:36:36;24.80;86.70
2957;DHT22;1488;51.548;7.222;2023-09-19T02:39:03;24.80;86.60
2957;DHT22;1488;51.548;7.222;2023-09-19T02:41:31;24.80;86.60
2957;DHT22;1488;51.548;7.222;2023-09-19T02:43:58;24.80;86.60
2957;DHT22;1488;51.548;7.222;2023-09-19T02:46:27;24.80;86.50
2957;DHT22;1488;51.548;7.222;2023-09-19T02:48:54;24.70;86.40
2957;DHT22;1488;51.548;7.222;2023-09-19T02:51:21;24.70;86.30
2957;DHT22;1488;51.548;7.222;2023-09-19T02:53:50;24.80;86.40
2957;DHT22;1488;51.548;7.222;2023-09-19T02:56:18;24.70;86.30
2957;DHT22;1488;51.548;7.222;2023-09-19T02:58:45;24.70;86.40
2957;DHT22;1488;51.548;7.222;2023-09-19T03:01:13;24.70;86.20
2957;DHT22;1488;51.548;7.222;2023-09-19T03:03:41;24.70;86.30
2957;DHT22;1488;51.548;7.222;2023-09-19T03:06:08;24.70;86.30
2957;DHT22;1488;51.548;7.222;2023-09-19T03:08:35;24.70;86.10
2957;DHT22;1488;51.548;7.222;2023-09-19T03:11:06;24.70;86.20
2957;DHT22;1488;51.548;7.222;2023-09-19T03:13:37;24.70;86.30
2957;DHT22;1488;51.548;7.222;2023-09-19T03:16:05;24.70;86.10
2957;DHT22;1488;51.548;7.222;2023-09-19T03:18:34;24.70;86.10
2957;DHT22;1488;51.548;7.222;2023-09-19T03:21:01;24.70;86.10
2957;DHT22;1488;51.548;7.222;2023-09-19T03:23:29;24.70;86.10
2957;DHT22;1488;51.548;7.222;2023-09-19T03:25:56;24.70;86.00
2957;DHT22;1488;51.548;7.222;2023-09-19T03:28:26;24.70;86.10
2957;DHT22;1488;51.548;7.222;2023-09-19T03:31:00;24.70;86.00
2957;DHT22;1488;51.548;7.222;2023-09-19T03:33:27;24.70;86.00
2957;DHT22;1488;51.548;7.222;2023-09-19T03:35:54;24.70;86.00
2957;DHT22;1488;51.548;7.222;2023-09-19T03:38:24;24.70;86.00
2957;DHT22;1488;51.548;7.222;2023-09-19T03:40:51;24.70;86.00
2957;DHT22;1488;51.548;7.222;2023-09-19T03:43:18;24.70;85.90
2957;DHT22;1488;51.548;7.222;2023-09-19T03:45:46;24.70;85.70
2957;DHT22;1488;51.548;7.222;2023-09-19T03:48:14;24.70;85.90
2957;DHT22;1488;51.548;7.222;2023-09-19T03:50:41;24.70;85.80
2957;DHT22;1488;51.548;7.222;2023-09-19T03:53:09;24.70;85.70
2957;DHT22;1488;51.548;7.222;2023-09-19T03:55:36;24.70;85.60
2957;DHT22;1488;51.548;7.222;2023-09-19T03:58:04;24.70;85.60
2957;DHT22;1488;51.548;7.222;2023-09-19T04:00:31;24.70;85.60
2957;DHT22;1488;51.548;7.222;2023-09-19T04:02:59;24.70;85.70
2957;DHT22;1488;51.548;7.222;2023-09-19T04:05:31;24.70;85.60
2957;DHT22;1488;51.548;7.222;2023-09-19T04:07:57;24.70;85.50
2957;DHT22;1488;51.548;7.222;2023-09-19T04:10:24;24.70;85.60
2957;DHT22;1488;51.548;7.222;2023-09-19T04:12:51;24.70;85.60
2957;DHT22;1488;51.548;7.222;2023-09-19T04:15:19;24.70;85.50
2957;DHT22;1488;51.548;7.222;2023-09-19T04:17:47;24.70;85.40
2957;DHT22;1488;51.548;7.222;2023-09-19T04:20:16;24.70;85.60
2957;DHT22;1488;51.548;7.222;2023-09-19T04:22:45;24.70;85.50
2957;DHT22;1488;51.548;7.222;2023-09-19T04:25:12;24.70;85.40
2957;DHT22;1488;51.548;7.222;2023-09-19T04:27:38;24.60;85.30
2957;DHT22;1488;51.548;7.222;2023-09-19T04:30:08;24.60;85.20
2957;DHT22;1488;51.548;7.222;2023-09-19T04:32:37;24.60;85.20
2957;DHT22;1488;51.548;7.222;2023-09-19T04:35:06;24.60;85.20
2957;DHT22;1488;51.548;7.222;2023-09-19T04:37:37;24.60;85.20
2957;DHT22;1488;51.548;7.222;2023-09-19T04:40:06;24.60;85.20
2957;DHT22;1488;51.548;7.222;2023-09-19T04:42:38;24.60;85.10
2957;DHT22;1488;51.548;7.222;2023-09-19T04:45:06;24.60;85.10
2957;DHT22;1488;51.548;7.222;2023-09-19T04:47:35;24.60;85.00
2957;DHT22;1488;51.548;7.222;2023-09-19T04:50:06;24.60;85.00
2957;DHT22;1488;51.548;7.222;2023-09-19T04:52:39;24.60;85.00
2957;DHT22;1488;51.548;7.222;2023-09-19T04:55:10;24.60;85.00
2957;DHT22;1488;51.548;7.222;2023-09-19T04:57:39;24.60;84.90
2957;DHT22;1488;51.548;7.222;2023-09-19T05:00:06;24.60;85.90
2957;DHT22;1488;51.548;7.222;2023-09-19T05:02:38;24.60;84.90
2957;DHT22;1488;51.548;7.222;2023-09-19T05:05:06;24.60;85.20
2957;DHT22;1488;51.548;7.222;2023-09-19T05:07:33;24.60;85.00
2957;DHT22;1488;51.548;7.222;2023-09-19T05:10:02;24.60;84.90
2957;DHT22;1488;51.548;7.222;2023-09-19T05:12:34;24.60;84.80
2957;DHT22;1488;51.548;7.222;2023-09-19T05:15:01;24.60;85.00
2957;DHT22;1488;51.548;7.222;2023-09-19T05:17:28;24.60;84.90
2957;DHT22;1488;51.548;7.222;2023-09-19T05:19:55;24.60;85.00
2957;DHT22;1488;51.548;7.222;2023-09-19T05:22:22;24.60;85.00
2957;DHT22;1488;51.548;7.222;2023-09-19T05:24:50;24.60;85.10
2957;DHT22;1488;51.548;7.222;2023-09-19T05:27:19;24.60;85.10
2957;DHT22;1488;51.548;7.222;2023-09-19T05:29:47;24.60;85.10
2957;DHT22;1488;51.548;7.222;2023-09-19T05:32:14;24.50;84.80
2957;DHT22;1488;51.548;7.222;2023-09-19T05:34:41;24.60;84.90
2957;DHT22;1488;51.548;7.222;2023-09-19T05:37:08;24.50;84.90
2957;DHT22;1488;51.548;7.222;2023-09-19T05:39:35;24.50;84.90
2957;DHT22;1488;51.548;7.222;2023-09-19T05:42:03;24.50;85.00
2957;DHT22;1488;51.548;7.222;2023-09-19T05:44:31;24.60;84.90
2957;DHT22;1488;51.548;7.222;2023-09-19T05:46:58;24.60;84.90
2957;DHT22;1488;51.548;7.222;2023-09-19T05:49:25;24.60;85.00
2957;DHT22;1488;51.548;7.222;2023-09-19T05:51:53;24.50;84.70
2957;DHT22;1488;51.548;7.222;2023-09-19T05:54:22;24.50;84.80
2957;DHT22;1488;51.548;7.222;2023-09-19T05:56:48;24.50;84.90
2957;DHT22;1488;51.548;7.222;2023-09-19T05:59:18;24.50;85.60
2957;DHT22;1488;51.548;7.222;2023-09-19T06:01:46;24.50;84.80
2957;DHT22;1488;51.548;7.222;2023-09-19T06:04:13;24.50;84.80
2957;DHT22;1488;51.548;7.222;2023-09-19T06:06:40;24.50;84.70
2957;DHT22;1488;51.548;7.222;2023-09-19T06:09:08;24.50;84.80
2957;DHT22;1488;51.548;7.222;2023-09-19T06:11:35;24.50;84.70
2957;DHT22;1488;51.548;7.222;2023-09-19T06:14:02;24.50;84.80
2957;DHT22;1488;51.548;7.222;2023-09-19T06:16:29;24.50;84.70
2957;DHT22;1488;51.548;7.222;2023-09-19T06:18:59;24.50;84.70
2957;DHT22;1488;51.548;7.222;2023-09-19T06:21:27;24.50;84.70
2957;DHT22;1488;51.548;7.222;2023-09-19T06:23:54;24.50;84.60
2957;DHT22;1488;51.548;7.222;2023-09-19T06:26:21;24.50;84.70
2957;DHT22;1488;51.548;7.222;2023-09-19T06:28:48;24.50;84.70
2957;DHT22;1488;51.548;7.222;2023-09-19T06:31:15;24.50;85.60
2957;DHT22;1488;51.548;7.222;2023-09-19T06:33:42;24.50;84.70
2957;DHT22;1488;51.548;7.222;2023-09-19T06:36:10;24.50;84.70
2957;DHT22;1488;51.548;7.222;2023-09-19T06:38:37;24.50;84.70
2957;DHT22;1488;51.548;7.222;2023-09-19T06:41:04;24.50;84.60
2957;DHT22;1488;51.548;7.222;2023-09-19T06:43:33;24.50;84.60
2957;DHT22;1488;51.548;7.222;2023-09-19T06:46:00;24.50;84.70
2957;DHT22;1488;51.548;7.222;2023-09-19T06:48:27;24.50;84.50
2957;DHT22;1488;51.548;7.222;2023-09-19T06:50:55;24.50;84.60
2957;DHT22;1488;51.548;7.222;2023-09-19T06:53:25;24.50;84.60
2957;DHT22;1488;51.548;7.222;2023-09-19T06:55:52;24.50;84.60
2957;DHT22;1488;51.548;7.222;2023-09-19T06:58:19;24.50;84.60
2957;DHT22;1488;51.548;7.222;2023-09-19T07:00:46;24.50;84.60
2957;DHT22;1488;51.548;7.222;2023-09-19T07:03:15;24.50;84.50
2957;DHT22;1488;51.548;7.222;2023-09-19T07:05:47;24.50;84.40
2957;DHT22;1488;51.548;7.222;2023-09-19T07:08:14;24.50;84.50
2957;DHT22;1488;51.548;7.222;2023-09-19T07:10:43;24.50;84.50
2957;DHT22;1488;51.548;7.222;2023-09-19T07:13:14;24.60;84.50
2957;DHT22;1488;51.548;7.222;2023-09-19T07:15:43;24.60;84.50
2957;DHT22;1488;51.548;7.222;2023-09-19T07:18:12;24.60;84.50
2957;DHT22;1488;51.548;7.222;2023-09-19T07:20:40;24.60;84.40
2957;DHT22;1488;51.548;7.222;2023-09-19T07:23:11;24.60;84.20
2957;DHT22;1488;51.548;7.222;2023-09-19T07:25:39;24.60;84.40
2957;DHT22;1488;51.548;7.222;2023-09-19T07:28:07;24.60;84.30
2957;DHT22;1488;51.548;7.222;2023-09-19T07:30:36;24.60;85.20
2957;DHT22;1488;51.548;7.222;2023-09-19T07:33:04;24.60;84.40
2957;DHT22;1488;51.548;7.222;2023-09-19T07:35:31;24.60;84.30
2957;DHT22;1488;51.548;7.222;2023-09-19T07:37:58;24.60;84.40
2957;DHT22;1488;51.548;7.222;2023-09-19T07:40:27;24.60;84.20
2957;DHT22;1488;51.548;7.222;2023-09-19T07:42:54;24.60;84.30
2957;DHT22;1488;51.548;7.222;2023-09-19T07:45:23;24.60;84.40
2957;DHT22;1488;51.548;7.222;2023-09-19T07:47:51;24.60;84.40
2957;DHT22;1488;51.548;7.222;2023-09-19T07:50:19;24.60;84.30
2957;DHT22;1488;51.548;7.222;2023-09-19T07:52:46;24.70;84.40
2957;DHT22;1488;51.548;7.222;2023-09-19T07:55:13;24.70;84.40
2957;DHT22;1488;51.548;7.222;2023-09-19T07:57:42;24.70;84.50
2957;DHT22;1488;51.548;7.222;2023-09-19T08:00:10;24.70;84.40
2957;DHT22;1488;51.548;7.222;2023-09-19T08:02:39;24.70;84.40
2957;DHT22;1488;51.548;7.222;2023-09-19T08:05:07;24.70;85.30
2957;DHT22;1488;51.548;7.222;2023-09-19T08:07:35;24.70;84.50
2957;DHT22;1488;51.548;7.222;2023-09-19T08:10:03;24.70;84.70
2957;DHT22;1488;51.548;7.222;2023-09-19T08:12:30;24.80;84.90
2957;DHT22;1488;51.548;7.222;2023-09-19T08:14:58;24.80;84.90
2957;DHT22;1488;51.548;7.222;2023-09-19T08:17:24;24.80;85.10
2957;DHT22;1488;51.548;7.222;2023-09-19T08:19:53;24.80;85.10
2957;DHT22;1488;51.548;7.222;2023-09-19T08:22:20;24.80;85.20
2957;DHT22;1488;51.548;7.222;2023-09-19T08:24:47;24.80;85.30
2957;DHT22;1488;51.548;7.222;2023-09-19T08:27:14;24.80;85.30
2957;DHT22;1488;51.548;7.222;2023-09-19T08:29:43;24.80;85.40
2957;DHT22;1488;51.548;7.222;2023-09-19T08:32:11;24.80;85.30
2957;DHT22;1488;51.548;7.222;2023-09-19T08:34:38;24.80;85.40
2957;DHT22;1488;51.548;7.222;2023-09-19T08:37:07;24.80;85.60
2957;DHT22;1488;51.548;7.222;2023-09-19T08:39:34;24.80;85.70
2957;DHT22;1488;51.548;7.222;2023-09-19T08:42:02;24.80;85.60
2957;DHT22;1488;51.548;7.222;2023-09-19T08:44:30;24.90;85.80
2957;DHT22;1488;51.548;7.222;2023-09-19T08:47:06;24.80;85.70
2957;DHT22;1488;51.548;7.222;2023-09-19T08:49:40;24.90;85.70
2957;DHT22;1488;51.548;7.222;2023-09-19T08:52:19;24.90;85.80
2957;DHT22;1488;51.548;7.222;2023-09-19T08:54:49;24.90;85.90
2957;DHT22;1488;51.548;7.222;2023-09-19T08:57:19;24.90;85.90
2957;DHT22;1488;51.548;7.222;2023-09-19T08:59:48;24.90;85.80
2957;DHT22;1488;51.548;7.222;2023-09-19T09:02:16;24.90;85.80
2957;DHT22;1488;51.548;7.222;2023-09-19T09:04:45;25.00;85.90
2957;DHT22;1488;51.548;7.222;2023-09-19T09:07:14;25.00;86.70
2957;DHT22;1488;51.548;7.222;2023-09-19T09:09:42;25.00;85.90
2957;DHT22;1488;51.548;7.222;2023-09-19T09:12:11;25.00;85.90
2957;DHT22;1488;51.548;7.222;2023-09-19T09:14:39;25.00;85.90
2957;DHT22;1488;51.548;7.222;2023-09-19T09:17:07;25.00;85.90
2957;DHT22;1488;51.548;7.222;2023-09-19T09:19:34;25.00;86.80
2957;DHT22;1488;51.548;7.222;2023-09-19T09:22:07;25.00;86.00
2957;DHT22;1488;51.548;7.222;2023-09-19T09:24:36;25.00;86.00
2957;DHT22;1488;51.548;7.222;2023-09-19T09:27:05;25.00;86.00
2957;DHT22;1488;51.548;7.222;2023-09-19T09:29:42;25.10;86.10
2957;DHT22;1488;51.548;7.222;2023-09-19T09:32:23;25.10;86.10
2957;DHT22;1488;51.548;7.222;2023-09-19T09:34:52;25.10;86.10
2957;DHT22;1488;51.548;7.222;2023-09-19T09:37:21;25.10;86.10
2957;DHT22;1488;51.548;7.222;2023-09-19T09:39:53;25.10;86.10
2957;DHT22;1488;51.548;7.222;2023-09-19T09:42:32;25.20;86.10
2957;DHT22;1488;51.548;7.222;2023-09-19T09:45:17;25.20;86.10
2957;DHT22;1488;51.548;7.222;2023-09-19T09:47:54;25.20;86.20
2957;DHT22;1488;51.548;7.222;2023-09-19T09:50:29;25.20;86.20
2957;DHT22;1488;51.548;7.222;2023-09-19T09:53:05;25.20;86.20
2957;DHT22;1488;51.548;7.222;2023-09-19T09:55:58;25.20;86.10
2957;DHT22;1488;51.548;7.222;2023-09-19T09:58:26;25.20;86.10
2957;DHT22;1488;51.548;7.222;2023-09-19T10:00:55;25.20;86.10
2957;DHT22;1488;51.548;7.222;2023-09-19T10:03:31;25.30;86.10
2957;DHT22;1488;51.548;7.222;2023-09-19T10:06:00;25.30;86.30
2957;DHT22;1488;51.548;7.222;2023-09-19T10:08:28;25.40;86.10
2957;DHT22;1488;51.548;7.222;2023-09-19T10:10:58;25.40;86.10
2957;DHT22;1488;51.548;7.222;2023-09-19T10:13:31;25.40;86.10
2957;DHT22;1488;51.548;7.222;2023-09-19T10:16:06;25.40;86.10
2957;DHT22;1488;51.548;7.222;2023-09-19T10:18:36;25.40;86.10
2957;DHT22;1488;51.548;7.222;2023-09-19T10:21:05;25.50;86.20
2957;DHT22;1488;51.548;7.222;2023-09-19T10:23:35;25.50;86.10
2957;DHT22;1488;51.548;7.222;2023-09-19T10:26:05;25.50;86.00
2957;DHT22;1488;51.548;7.222;2023-09-19T10:28:35;25.50;86.00
2957;DHT22;1488;51.548;7.222;2023-09-19T10:31:04;25.50;86.00
2957;DHT22;1488;51.548;7.222;2023-09-19T10:33:36;25.50;86.10
2957;DHT22;1488;51.548;7.222;2023-09-19T10:36:05;25.60;86.20
2957;DHT22;1488;51.548;7.222;2023-09-19T10:38:33;25.60;86.10
2957;DHT22;1488;51.548;7.222;2023-09-19T10:41:01;25.60;86.10
2957;DHT22;1488;51.548;7.222;2023-09-19T10:43:32;25.60;86.10
2957;DHT22;1488;51.548;7.222;2023-09-19T10:46:02;25.60;86.10
2957;DHT22;1488;51.548;7.222;2023-09-19T10:48:29;25.60;86.10
2957;DHT22;1488;51.548;7.222;2023-09-19T10:51:01;25.60;86.10
2957;DHT22;1488;51.548;7.222;2023-09-19T10:53:41;25.60;86.20
2957;DHT22;1488;51.548;7.222;2023-09-19T10:56:09;25.60;86.20
2957;DHT22;1488;51.548;7.222;2023-09-19T10:58:44;25.60;86.30
2957;DHT22;1488;51.548;7.222;2023-09-19T11:01:11;25.60;86.20
2957;DHT22;1488;51.548;7.222;2023-09-19T11:03:40;25.70;86.30
2957;DHT22;1488;51.548;7.222;2023-09-19T11:06:11;25.70;86.20
2957;DHT22;1488;51.548;7.222;2023-09-19T11:09:09;25.80;86.40
2957;DHT22;1488;51.548;7.222;2023-09-19T11:11:49;25.80;86.20
2957;DHT22;1488;51.548;7.222;2023-09-19T11:14:38;25.80;87.10
2957;DHT22;1488;51.548;7.222;2023-09-19T11:20:24;25.90;86.30
2957;DHT22;1488;51.548;7.222;2023-09-19T11:23:18;26.00;86.40
2957;DHT22;1488;51.548;7.222;2023-09-19T11:25:49;26.00;86.40
2957;DHT22;1488;51.548;7.222;2023-09-19T11:28:30;26.00;86.30
2957;DHT22;1488;51.548;7.222;2023-09-19T11:34:40;26.00;86.20
2957;DHT22;1488;51.548;7.222;2023-09-19T11:40:44;26.10;86.20
2957;DHT22;1488;51.548;7.222;2023-09-19T11:43:33;26.10;86.20
2957;DHT22;1488;51.548;7.222;2023-09-19T11:46:06;26.10;86.20
2957;DHT22;1488;51.548;7.222;2023-09-19T11:48:35;26.10;86.10
2957;DHT22;1488;51.548;7.222;2023-09-19T11:51:17;26.10;86.10
2957;DHT22;1488;51.548;7.222;2023-09-19T11:53:50;26.10;86.00
2957;DHT22;1488;51.548;7.222;2023-09-19T11:56:18;26.10;86.10
2957;DHT22;1488;51.548;7.222;2023-09-19T11:58:46;26.10;86.10
2957;DHT22;1488;51.548;7.222;2023-09-19T12:01:22;26.10;86.10
2957;DHT22;1488;51.548;7.222;2023-09-19T12:03:53;26.10;86.10
2957;DHT22;1488;51.548;7.222;2023-09-19T12:06:23;26.10;86.00
2957;DHT22;1488;51.548;7.222;2023-09-19T12:08:50;26.10;86.10
2957;DHT22;1488;51.548;7.222;2023-09-19T12:11:21;26.10;86.10
2957;DHT22;1488;51.548;7.222;2023-09-19T12:13:50;26.10;87.00
2957;DHT22;1488;51.548;7.222;2023-09-19T12:16:20;26.10;86.20
2957;DHT22;1488;51.548;7.222;2023-09-19T12:18:50;26.10;86.20
2957;DHT22;1488;51.548;7.222;2023-09-19T12:21:27;26.10;86.30
2957;DHT22;1488;51.548;7.222;2023-09-19T12:24:04;26.10;86.30
2957;DHT22;1488;51.548;7.222;2023-09-19T12:26:39;26.10;86.40
2957;DHT22;1488;51.548;7.222;2023-09-19T12:29:12;26.10;86.30
2957;DHT22;1488;51.548;7.222;2023-09-19T12:31:52;26.10;86.30
2957;DHT22;1488;51.548;7.222;2023-09-19T12:34:22;26.20;87.20
2957;DHT22;1488;51.548;7.222;2023-09-19T12:37:07;26.20;87.20
2957;DHT22;1488;51.548;7.222;2023-09-19T12:39:39;26.20;86.40
2957;DHT22;1488;51.548;7.222;2023-09-19T12:42:11;26.20;86.40
2957;DHT22;1488;51.548;7.222;2023-09-19T12:44:41;26.20;86.40
2957;DHT22;1488;51.548;7.222;2023-09-19T12:47:12;26.30;86.40
2957;DHT22;1488;51.548;7.222;2023-09-19T12:50:09;26.30;86.40
2957;DHT22;1488;51.548;7.222;2023-09-19T12:52:44;26.30;86.20
2957;DHT22;1488;51.548;7.222;2023-09-19T12:55:26;26.30;86.30
2957;DHT22;1488;51.548;7.222;2023-09-19T12:58:02;26.30;86.30
2957;DHT22;1488;51.548;7.222;2023-09-19T13:00:35;26.30;86.30
2957;DHT22;1488;51.548;7.222;2023-09-19T13:03:14;26.30;86.40
2957;DHT22;1488;51.548;7.222;2023-09-19T13:05:51;26.40;86.40
2957;DHT22;1488;51.548;7.222;2023-09-19T13:08:21;26.40;86.40
2957;DHT22;1488;51.548;7.222;2023-09-19T13:11:07;26.40;86.20
2957;DHT22;1488;51.548;7.222;2023-09-19T13:13:37;26.40;86.30
2957;DHT22;1488;51.548;7.222;2023-09-19T13:16:04;26.40;86.30
2957;DHT22;1488;51.548;7.222;2023-09-19T13:18:44;26.40;86.20
2957;DHT22;1488;51.548;7.222;2023-09-19T13:21:12;26.40;86.20
2957;DHT22;1488;51.548;7.222;2023-09-19T13:23:49;26.40;86.20
2957;DHT22;1488;51.548;7.222;2023-09-19T13:26:16;26.40;86.20
2957;DHT22;1488;51.548;7.222;2023-09-19T13:28:43;26.40;87.10
2957;DHT22;1488;51.548;7.222;2023-09-19T13:31:11;26.40;86.20
2957;DHT22;1488;51.548;7.222;2023-09-19T13:33:44;26.40;86.30
2957;DHT22;1488;51.548;7.222;2023-09-19T13:36:12;26.40;86.20
2957;DHT22;1488;51.548;7.222;2023-09-19T13:38:40;26.40;86.20
2957;DHT22;1488;51.548;7.222;2023-09-19T13:41:08;26.40;86.10
2957;DHT22;1488;51.548;7.222;2023-09-19T13:43:35;26.40;86.10
2957;DHT22;1488;51.548;7.222;2023-09-19T13:46:02;26.40;86.10
2957;DHT22;1488;51.548;7.222;2023-09-19T13:48:29;26.40;86.20
2957;DHT22;1488;51.548;7.222;2023-09-19T13:50:57;26.40;86.20
2957;DHT22;1488;51.548;7.222;2023-09-19T13:53:25;26.40;86.10
2957;DHT22;1488;51.548;7.222;2023-09-19T13:55:52;26.40;86.10
2957;DHT22;1488;51.548;7.222;2023-09-19T13:58:19;26.40;86.10
2957;DHT22;1488;51.548;7.222;2023-09-19T14:00:46;26.40;87.10
2957;DHT22;1488;51.548;7.222;2023-09-19T14:03:13;26.30;86.10
2957;DHT22;1488;51.548;7.222;2023-09-19T14:05:40;26.30;86.10
2957;DHT22;1488;51.548;7.222;2023-09-19T14:08:09;26.30;86.10
2957;DHT22;1488;51.548;7.222;2023-09-19T14:10:38;26.30;86.20
2957;DHT22;1488;51.548;7.222;2023-09-19T14:13:05;26.30;87.10
2957;DHT22;1488;51.548;7.222;2023-09-19T14:15:32;26.30;86.20
2957;DHT22;1488;51.548;7.222;2023-09-19T14:18:00;26.30;86.20
2957;DHT22;1488;51.548;7.222;2023-09-19T14:20:27;26.20;86.20
2957;DHT22;1488;51.548;7.222;2023-09-19T14:22:54;26.20;86.20
2957;DHT22;1488;51.548;7.222;2023-09-19T14:25:23;26.20;86.20
2957;DHT22;1488;51.548;7.222;2023-09-19T14:27:50;26.20;86.10
2957;DHT22;1488;51.548;7.222;2023-09-19T14:30:17;26.20;86.10
2957;DHT22;1488;51.548;7.222;2023-09-19T14:32:44;26.20;86.10
2957;DHT22;1488;51.548;7.222;2023-09-19T14:35:11;26.20;86.00
2957;DHT22;1488;51.548;7.222;2023-09-19T14:37:40;26.20;85.90
2957;DHT22;1488;51.548;7.222;2023-09-19T14:40:08;26.20;85.90
2957;DHT22;1488;51.548;7.222;2023-09-19T14:42:39;26.20;86.00
2957;DHT22;1488;51.548;7.222;2023-09-19T14:45:07;26.20;85.90
2957;DHT22;1488;51.548;7.222;2023-09-19T14:47:34;26.20;85.90
2957;DHT22;1488;51.548;7.222;2023-09-19T14:50:02;26.20;85.90
2957;DHT22;1488;51.548;7.222;2023-09-19T14:52:33;26.20;85.80
2957;DHT22;1488;51.548;7.222;2023-09-19T14:55:01;26.20;85.80
2957;DHT22;1488;51.548;7.222;2023-09-19T14:57:30;26.10;85.80
2957;DHT22;1488;51.548;7.222;2023-09-19T14:59:58;26.10;86.60
2957;DHT22;1488;51.548;7.222;2023-09-19T15:02:26;26.10;85.80
2957;DHT22;1488;51.548;7.222;2023-09-19T15:04:52;26.10;85.80
2957;DHT22;1488;51.548;7.222;2023-09-19T15:07:19;26.10;85.80
2957;DHT22;1488;51.548;7.222;2023-09-19T15:09:46;26.10;85.90
2957;DHT22;1488;51.548;7.222;2023-09-19T15:12:13;26.10;86.70
2957;DHT22;1488;51.548;7.222;2023-09-19T15:14:40;26.00;85.80
2957;DHT22;1488;51.548;7.222;2023-09-19T15:17:09;26.00;85.80
2957;DHT22;1488;51.548;7.222;2023-09-19T15:19:36;26.00;86.70
2957;DHT22;1488;51.548;7.222;2023-09-19T15:22:04;26.00;85.90
2957;DHT22;1488;51.548;7.222;2023-09-19T15:24:31;26.00;85.90
2957;DHT22;1488;51.548;7.222;2023-09-19T15:26:58;26.00;85.90
2957;DHT22;1488;51.548;7.222;2023-09-19T15:29:25;26.00;85.90
2957;DHT22;1488;51.548;7.222;2023-09-19T15:31:55;26.00;85.90
2957;DHT22;1488;51.548;7.222;2023-09-19T15:34:25;26.00;85.90
2957;DHT22;1488;51.548;7.222;2023-09-19T15:36:52;26.00;85.90
2957;DHT22;1488;51.548;7.222;2023-09-19T15:39:19;25.90;85.90
2957;DHT22;1488;51.548;7.222;2023-09-19T15:41:48;25.90;85.90
2957;DHT22;1488;51.548;7.222;2023-09-19T15:44:17;25.90;85.90
2957;DHT22;1488;51.548;7.222;2023-09-19T15:46:45;25.90;85.90
2957;DHT22;1488;51.548;7.222;2023-09-19T15:49:12;25.90;85.90
2957;DHT22;1488;51.548;7.222;2023-09-19T15:51:40;25.90;86.70
2957;DHT22;1488;51.548;7.222;2023-09-19T15:54:10;25.90;85.90
2957;DHT22;1488;51.548;7.222;2023-09-19T15:56:39;25.90;85.90
2957;DHT22;1488;51.548;7.222;2023-09-19T15:59:07;25.90;86.80
2957;DHT22;1488;51.548;7.222;2023-09-19T16:01:34;25.90;86.00
2957;DHT22;1488;51.548;7.222;2023-09-19T16:04:00;25.90;85.90
2957;DHT22;1488;51.548;7.222;2023-09-19T16:06:30;25.90;85.90
2957;DHT22;1488;51.548;7.222;2023-09-19T16:08:59;25.90;85.90
2957;DHT22;1488;51.548;7.222;2023-09-19T16:11:31;25.90;85.90
2957;DHT22;1488;51.548;7.222;2023-09-19T16:13:58;25.80;85.80
2957;DHT22;1488;51.548;7.222;2023-09-19T16:16:27;25.80;85.80
2957;DHT22;1488;51.548;7.222;2023-09-19T16:18:57;25.80;85.80
2957;DHT22;1488;51.548;7.222;2023-09-19T16:21:26;25.80;85.80
2957;DHT22;1488;51.548;7.222;2023-09-19T16:23:54;25.80;85.80
2957;DHT22;1488;51.548;7.222;2023-09-19T16:26:23;25.80;85.80
2957;DHT22;1488;51.548;7.222;2023-09-19T16:28:51;25.80;85.80
2957;DHT22;1488;51.548;7.222;2023-09-19T16:31:18;25.80;85.90